Terminal Aerodrome Forecast
Issued by NWS Newport/Morehead City, NC

Home | Current Version | Previous Version | Graphics & Text | Print | Product List | Glossary On
Versions: 1 2 3 4 5 6 7 8 9 10 11 12 13 14 15
681
FTUS42 KMHX 221301 AAA
TAFEWN
TAF AMD
KEWN 221301Z 2213/2312 36006KT P6SM OVC030
     FM221400 01015G26KT P6SM BKN035
     FM221500 01016G25KT P6SM SCT050
     FM222300 03006KT P6SM SKC=

USA.gov is the U.S. government's official web portal to all federal, state and local government web resources and services.